Time;durP1;ratioP1;P1;durP2;ratioP2;P2;SDS_P1;SDS_P2;PMS_P1;PMS_P2;Temp;Humidity;BMP_temperature;BMP_pressure;BME280_temperature;BME280_humidity;BME280_pressure;Samples;Min_cycle;Max_cycle;Signal;HPM_P1;HPM_P2
2023/03/25 02:35:54;;;;;;;;;;;20.80;39.80;;;;;;3027552;19;4563;-95
2023/03/25 02:43:09;;;;;;;;;;;20.50;44.50;;;;;;3049262;19;4537;-30
2023/03/25 02:44:23;;;;;;;;;;;20.60;44.60;;;;;;3052272;19;6453;-30
2023/03/25 02:45:31;;;;;;;;;;;20.60;44.70;;;;;;3052944;19;4513;-31
2023/03/25 02:46:32;;;;;;;;;;;20.50;44.60;;;;;;3052319;19;4348;-31
2023/03/25 02:47:35;;;;;;;;;;;20.50;44.60;;;;;;3052241;19;4499;-32
2023/03/25 02:48:44;;;;;;;;;;;20.50;44.60;;;;;;3053428;19;4519;-31
2023/03/25 02:49:57;;;;;;;;;;;20.50;44.70;;;;;;3052518;19;4708;-30
2023/03/25 02:50:57;;;;;;;;;;;20.50;44.70;;;;;;3053698;19;4514;-33
2023/03/25 02:52:07;;;;;;;;;;;20.50;44.70;;;;;;3053602;19;4859;-31
2023/03/25 02:53:09;;;;;;;;;;;20.50;44.70;;;;;;3053011;19;5947;-32
2023/03/25 02:54:11;;;;;;;;;;;20.50;44.80;;;;;;3053383;19;4489;-30
2023/03/25 02:55:13;;;;;;;;;;;20.50;44.80;;;;;;3054046;19;907;-30
2023/03/25 02:56:15;;;;;;;;;;;20.50;44.80;;;;;;3052016;19;4590;-31
2023/03/25 02:57:18;;;;;;;;;;;20.50;44.80;;;;;;3053618;19;4564;-32
2023/03/25 02:58:18;;;;;;;;;;;20.50;44.80;;;;;;3053027;19;4637;-31
2023/03/25 02:59:21;;;;;;;;;;;20.50;44.80;;;;;;3052123;19;4545;-32
2023/03/25 03:00:27;;;;;;;;;;;20.50;44.80;;;;;;3052649;19;4541;-30
2023/03/25 03:01:28;;;;;;;;;;;20.50;44.80;;;;;;3051896;19;4501;-30
2023/03/25 03:02:31;;;;;;;;;;;20.50;44.80;;;;;;3053378;19;4525;-32
2023/03/25 03:03:31;;;;;;;;;;;20.50;44.80;;;;;;3052847;19;4501;-32
2023/03/25 03:04:42;;;;;;;;;;;20.50;44.80;;;;;;3051937;19;4361;-31
2023/03/25 03:05:45;;;;;;;;;;;20.50;44.80;;;;;;3052933;19;4519;-30
2023/03/25 03:06:46;;;;;;;;;;;20.50;44.90;;;;;;3052628;19;4563;-33
2023/03/25 03:07:47;;;;;;;;;;;20.50;44.90;;;;;;3052519;19;4460;-31
2023/03/25 03:08:48;;;;;;;;;;;20.50;44.90;;;;;;3052902;19;4797;-33
2023/03/25 03:09:52;;;;;;;;;;;20.50;44.90;;;;;;3052566;19;4612;-32
2023/03/25 03:11:05;;;;;;;;;;;20.50;44.90;;;;;;3053493;19;4515;-31
2023/03/25 03:12:35;;;;;;;;;;;20.50;44.90;;;;;;3053589;19;4351;-32
2023/03/25 03:13:53;;;;;;;;;;;20.50;44.90;;;;;;2849208;19;2004437;-31
2023/03/25 03:15:02;;;;;;;;;;;20.50;44.90;;;;;;3052503;19;4399;-31
2023/03/25 03:16:23;;;;;;;;;;;20.40;44.90;;;;;;3053333;19;4647;-31
2023/03/25 03:17:30;;;;;;;;;;;20.50;45.00;;;;;;2848733;19;2005111;-34
2023/03/25 03:18:56;;;;;;;;;;;20.50;45.00;;;;;;3053330;19;4408;-33
2023/03/25 03:20:04;;;;;;;;;;;20.50;45.00;;;;;;3053801;19;4427;-31
2023/03/25 03:21:22;;;;;;;;;;;20.40;44.90;;;;;;3052823;19;4896;-32
2023/03/25 03:22:40;;;;;;;;;;;20.50;45.00;;;;;;2847781;19;2004378;-30
2023/03/25 03:23:47;;;;;;;;;;;20.50;45.00;;;;;;3052865;19;4497;-30
2023/03/25 03:25:11;;;;;;;;;;;20.50;45.00;;;;;;3052590;19;4514;-31
2023/03/25 03:26:16;;;;;;;;;;;20.40;45.10;;;;;;3051974;19;4637;-31
2023/03/25 03:27:38;;;;;;;;;;;20.50;45.00;;;;;;3053041;19;4522;-31
2023/03/25 03:28:54;;;;;;;;;;;20.50;45.10;;;;;;3050860;19;4541;-32
2023/03/25 03:29:57;;;;;;;;;;;20.40;45.00;;;;;;3052325;19;4520;-31
2023/03/25 03:31:16;;;;;;;;;;;20.40;45.00;;;;;;3052391;19;4562;-34
2023/03/25 03:32:19;;;;;;;;;;;20.40;45.10;;;;;;3051635;19;5893;-30
2023/03/25 03:33:32;;;;;;;;;;;20.50;45.10;;;;;;3051380;19;4482;-29
2023/03/25 03:34:50;;;;;;;;;;;20.40;45.10;;;;;;3052674;19;6244;-30
2023/03/25 03:36:00;;;;;;;;;;;20.40;45.10;;;;;;3051965;19;4547;-30
2023/03/25 03:37:01;;;;;;;;;;;20.40;45.10;;;;;;3052332;19;4618;-30
2023/03/25 03:38:05;;;;;;;;;;;20.40;45.10;;;;;;3052910;19;4744;-34
2023/03/25 03:39:10;;;;;;;;;;;20.40;45.10;;;;;;3052234;19;6741;-27
2023/03/25 03:40:15;;;;;;;;;;;20.40;45.20;;;;;;3051029;19;4533;-30
2023/03/25 03:41:18;;;;;;;;;;;20.40;45.10;;;;;;3052561;19;5529;-30
2023/03/25 03:42:32;;;;;;;;;;;20.40;45.20;;;;;;3052596;19;4540;-31
2023/03/25 03:43:45;;;;;;;;;;;20.40;45.10;;;;;;3050929;19;4522;-33
2023/03/25 03:44:49;;;;;;;;;;;20.40;45.10;;;;;;3052566;19;4637;-30
2023/03/25 03:45:51;;;;;;;;;;;20.40;45.20;;;;;;3052023;19;4607;-31
2023/03/25 03:46:54;;;;;;;;;;;20.40;45.20;;;;;;3051256;19;4538;-31
2023/03/25 03:47:55;;;;;;;;;;;20.40;45.20;;;;;;3050484;19;4507;-29
2023/03/25 03:48:57;;;;;;;;;;;20.40;45.20;;;;;;3050990;19;5875;-31
2023/03/25 03:49:59;;;;;;;;;;;20.40;45.20;;;;;;3051709;19;5671;-31
2023/03/25 03:51:03;;;;;;;;;;;20.40;45.20;;;;;;3050747;19;4449;-32
2023/03/25 03:52:20;;;;;;;;;;;20.40;45.30;;;;;;3051900;19;4619;-31
2023/03/25 03:53:27;;;;;;;;;;;20.40;45.50;;;;;;2846907;19;2004632;-29
2023/03/25 03:54:32;;;;;;;;;;;20.40;45.20;;;;;;3052248;19;4790;-30
2023/03/25 03:55:36;;;;;;;;;;;20.40;45.30;;;;;;3051986;19;4588;-31
2023/03/25 03:56:40;;;;;;;;;;;20.40;45.20;;;;;;3051091;19;4544;-33
2023/03/25 03:57:43;;;;;;;;;;;20.40;45.30;;;;;;3052343;19;4730;-31
2023/03/25 03:58:44;;;;;;;;;;;20.40;45.30;;;;;;3051861;19;4945;-32
2023/03/25 03:59:56;;;;;;;;;;;20.40;45.30;;;;;;3053118;19;4644;-32
2023/03/25 04:01:33;;;;;;;;;;;20.40;45.30;;;;;;3051429;19;4490;-32
2023/03/25 04:02:48;;;;;;;;;;;20.30;45.20;;;;;;2848030;19;2004398;-29
2023/03/25 04:03:49;;;;;;;;;;;20.30;45.20;;;;;;3051967;19;4527;-31
2023/03/25 04:04:52;;;;;;;;;;;20.30;45.20;;;;;;3053585;19;4501;-32
2023/03/25 04:05:59;;;;;;;;;;;20.30;45.30;;;;;;3051275;19;4529;-32
2023/03/25 04:07:04;;;;;;;;;;;20.40;45.20;;;;;;3051927;19;4510;-30
2023/03/25 04:08:10;;;;;;;;;;;20.30;45.20;;;;;;3052208;19;4550;-32
2023/03/25 04:09:33;;;;;;;;;;;20.30;45.20;;;;;;3052265;19;4509;-34
2023/03/25 04:10:40;;;;;;;;;;;20.40;45.20;;;;;;3052323;19;4570;-30
2023/03/25 04:11:43;;;;;;;;;;;20.40;45.30;;;;;;3051678;19;4657;-31
2023/03/25 04:12:49;;;;;;;;;;;20.30;45.20;;;;;;3053189;19;4572;-28
2023/03/25 04:13:51;;;;;;;;;;;20.40;45.20;;;;;;3052426;19;4610;-28
2023/03/25 04:14:55;;;;;;;;;;;20.30;45.20;;;;;;3053347;19;4488;-30
2023/03/25 04:15:58;;;;;;;;;;;20.30;45.20;;;;;;3052659;19;4453;-28
2023/03/25 04:16:59;;;;;;;;;;;20.30;45.20;;;;;;3052877;19;4513;-28
2023/03/25 04:18:00;;;;;;;;;;;20.30;45.30;;;;;;3052466;19;4549;-30
2023/03/25 04:19:02;;;;;;;;;;;20.30;45.30;;;;;;3053124;19;5982;-37
2023/03/25 04:20:10;;;;;;;;;;;20.30;45.30;;;;;;3052271;19;4541;-30
2023/03/25 04:21:14;;;;;;;;;;;20.30;45.20;;;;;;3053107;19;5998;-32
2023/03/25 04:22:15;;;;;;;;;;;20.30;45.20;;;;;;3054795;19;4627;-32
2023/03/25 04:23:16;;;;;;;;;;;20.30;45.20;;;;;;3055426;19;4576;-30
2023/03/25 04:24:18;;;;;;;;;;;20.30;45.20;;;;;;3054848;19;4966;-29
2023/03/25 04:25:20;;;;;;;;;;;20.30;45.20;;;;;;3056194;19;4620;-32
2023/03/25 04:26:20;;;;;;;;;;;20.30;45.30;;;;;;3054496;19;4587;-31
2023/03/25 04:27:28;;;;;;;;;;;20.30;45.30;;;;;;3056171;19;4552;-32
2023/03/25 04:28:30;;;;;;;;;;;20.30;45.30;;;;;;3055660;19;4422;-32
2023/03/25 04:29:31;;;;;;;;;;;20.30;45.90;;;;;;3055040;19;5909;-31
2023/03/25 04:30:32;;;;;;;;;;;20.30;45.30;;;;;;3055491;19;4508;-30
2023/03/25 04:31:32;;;;;;;;;;;20.30;45.30;;;;;;3055609;19;4496;-29
2023/03/25 04:32:33;;;;;;;;;;;20.30;45.30;;;;;;3055927;19;4514;-31
2023/03/25 04:33:34;;;;;;;;;;;20.30;45.30;;;;;;3056094;19;4567;-30
2023/03/25 04:34:35;;;;;;;;;;;20.30;45.30;;;;;;3055787;19;6453;-29
2023/03/25 04:35:36;;;;;;;;;;;20.30;45.30;;;;;;3054833;19;4699;-30
2023/03/25 04:36:37;;;;;;;;;;;20.30;45.40;;;;;;3055962;19;4617;-32
2023/03/25 04:37:38;;;;;;;;;;;20.30;45.40;;;;;;3055646;19;4605;-31
2023/03/25 04:38:39;;;;;;;;;;;20.30;45.30;;;;;;3055636;19;4641;-29
2023/03/25 04:39:40;;;;;;;;;;;20.30;45.30;;;;;;3056525;19;4547;-31
2023/03/25 04:40:45;;;;;;;;;;;20.30;45.40;;;;;;3054880;19;4451;-31
2023/03/25 04:41:46;;;;;;;;;;;20.40;45.50;;;;;;3054559;19;4410;-30
2023/03/25 04:42:46;;;;;;;;;;;20.40;45.30;;;;;;3055505;19;4513;-30
2023/03/25 04:43:47;;;;;;;;;;;20.50;45.20;;;;;;3055776;19;4372;-31
2023/03/25 04:44:48;;;;;;;;;;;20.70;45.10;;;;;;3056683;19;4539;-33
2023/03/25 04:45:52;;;;;;;;;;;20.80;44.80;;;;;;3054709;19;4488;-30
2023/03/25 04:46:54;;;;;;;;;;;20.90;44.50;;;;;;3054876;19;4613;-31
2023/03/25 04:47:56;;;;;;;;;;;21.00;44.20;;;;;;3055706;19;4459;-30
2023/03/25 04:48:59;;;;;;;;;;;21.10;44.00;;;;;;3055741;19;5911;-31
2023/03/25 04:50:00;;;;;;;;;;;21.20;43.80;;;;;;3055805;19;4465;-30
2023/03/25 04:51:02;;;;;;;;;;;21.20;43.80;;;;;;3054670;19;5457;-32
2023/03/25 04:52:03;;;;;;;;;;;21.20;43.70;;;;;;3055402;19;4476;-31
2023/03/25 04:53:03;;;;;;;;;;;21.20;43.60;;;;;;3056470;19;4440;-32
2023/03/25 04:54:06;;;;;;;;;;;21.20;43.60;;;;;;3056443;19;4574;-31
2023/03/25 04:55:08;;;;;;;;;;;21.20;43.60;;;;;;3054860;19;4605;-32
2023/03/25 04:56:14;;;;;;;;;;;21.20;43.50;;;;;;3055661;19;4552;-31
2023/03/25 04:57:15;;;;;;;;;;;21.20;43.60;;;;;;3056160;19;4538;-23
2023/03/25 04:58:16;;;;;;;;;;;21.20;43.70;;;;;;3055956;19;4736;-24
2023/03/25 04:59:17;;;;;;;;;;;21.30;43.60;;;;;;3056409;19;4624;-23
2023/03/25 05:00:21;;;;;;;;;;;21.30;43.50;;;;;;3056229;19;4560;-24
2023/03/25 05:01:29;;;;;;;;;;;21.40;43.20;;;;;;3056569;19;4627;-23
2023/03/25 05:02:29;;;;;;;;;;;21.50;43.10;;;;;;3055718;19;4548;-23
2023/03/25 05:03:33;;;;;;;;;;;21.50;42.90;;;;;;3056343;19;6038;-23
2023/03/25 05:04:34;;;;;;;;;;;21.50;43.00;;;;;;3055928;19;4566;-23
2023/03/25 05:05:34;;;;;;;;;;;21.50;42.90;;;;;;3055597;19;4622;-23
2023/03/25 05:06:39;;;;;;;;;;;21.50;42.90;;;;;;3055603;19;4554;-23
2023/03/25 05:07:39;;;;;;;;;;;21.50;42.90;;;;;;3055850;19;4557;-23
2023/03/25 05:08:40;;;;;;;;;;;21.50;42.80;;;;;;3056372;19;4510;-23
2023/03/25 05:09:41;;;;;;;;;;;21.50;42.90;;;;;;3055747;19;4571;-23
2023/03/25 05:10:42;;;;;;;;;;;21.50;42.80;;;;;;3056563;19;4565;-23
2023/03/25 05:11:42;;;;;;;;;;;21.50;42.90;;;;;;3054931;19;4606;-23
2023/03/25 05:12:43;;;;;;;;;;;21.50;43.00;;;;;;3055323;19;4489;-23
2023/03/25 05:13:44;;;;;;;;;;;21.50;43.00;;;;;;3055722;19;4532;-23
2023/03/25 05:14:44;;;;;;;;;;;21.50;43.00;;;;;;3056376;19;4553;-26
2023/03/25 05:15:46;;;;;;;;;;;21.50;42.80;;;;;;3056366;19;4610;-23
2023/03/25 05:16:47;;;;;;;;;;;21.60;42.70;;;;;;3055160;19;4514;-23
2023/03/25 05:17:47;;;;;;;;;;;21.70;42.60;;;;;;3055030;19;4528;-23
2023/03/25 05:18:48;;;;;;;;;;;21.70;42.40;;;;;;3054497;19;4515;-22
2023/03/25 05:19:50;;;;;;;;;;;21.70;42.40;;;;;;3055645;19;4464;-23
2023/03/25 05:20:52;;;;;;;;;;;21.80;42.40;;;;;;3053236;19;5694;-23
2023/03/25 05:21:55;;;;;;;;;;;21.80;42.50;;;;;;3054519;19;4768;-23
2023/03/25 05:22:56;;;;;;;;;;;21.80;42.50;;;;;;3055057;19;4456;-22
2023/03/25 05:23:57;;;;;;;;;;;21.80;42.50;;;;;;3056306;19;4471;-23
2023/03/25 05:24:58;;;;;;;;;;;21.80;42.50;;;;;;3056271;19;4456;-26
2023/03/25 05:25:58;;;;;;;;;;;21.70;42.40;;;;;;3054922;19;4455;-23
2023/03/25 05:27:01;;;;;;;;;;;21.70;42.50;;;;;;3055163;19;4481;-23
2023/03/25 05:28:04;;;;;;;;;;;21.80;42.60;;;;;;3055159;19;4463;-23
2023/03/25 05:29:07;;;;;;;;;;;21.70;42.50;;;;;;3055324;19;4364;-22
2023/03/25 05:30:08;;;;;;;;;;;21.70;42.60;;;;;;3054560;19;5970;-23
2023/03/25 05:31:09;;;;;;;;;;;21.70;42.50;;;;;;3054668;19;4766;-23
2023/03/25 05:32:12;;;;;;;;;;;21.70;42.50;;;;;;3056826;19;951;-23
2023/03/25 05:33:14;;;;;;;;;;;21.70;42.60;;;;;;3053751;19;4503;-23
2023/03/25 05:34:15;;;;;;;;;;;21.70;42.60;;;;;;3055972;19;4534;-23
2023/03/25 05:35:17;;;;;;;;;;;21.70;42.60;;;;;;3055896;19;4501;-22
2023/03/25 05:36:18;;;;;;;;;;;21.70;42.50;;;;;;3056171;19;4562;-23
2023/03/25 05:37:18;;;;;;;;;;;21.70;42.50;;;;;;3055164;19;4540;-23
2023/03/25 05:38:19;;;;;;;;;;;21.60;42.50;;;;;;3054216;19;4570;-23
2023/03/25 05:39:20;;;;;;;;;;;21.60;42.60;;;;;;3055175;19;4617;-22
2023/03/25 05:40:21;;;;;;;;;;;21.60;42.50;;;;;;3052632;19;4534;-25
2023/03/25 05:41:31;;;;;;;;;;;21.60;42.50;;;;;;3052844;19;4393;-23
2023/03/25 05:42:33;;;;;;;;;;;21.60;42.60;;;;;;3054457;19;5000;-23
2023/03/25 05:43:34;;;;;;;;;;;21.60;42.60;;;;;;3054407;19;5035;-24
2023/03/25 05:44:35;;;;;;;;;;;21.60;42.60;;;;;;3052586;19;4422;-30
2023/03/25 05:45:36;;;;;;;;;;;21.60;42.50;;;;;;3053962;19;4602;-31
2023/03/25 05:46:36;;;;;;;;;;;21.60;42.70;;;;;;3053790;19;4601;-33
2023/03/25 05:47:37;;;;;;;;;;;21.50;42.60;;;;;;3054166;19;4606;-30
2023/03/25 05:48:40;;;;;;;;;;;21.50;43.00;;;;;;3054111;19;4599;-32
2023/03/25 05:49:40;;;;;;;;;;;21.50;42.80;;;;;;3053209;19;4379;-33
2023/03/25 05:50:41;;;;;;;;;;;21.50;42.90;;;;;;3055046;19;4534;-31
2023/03/25 05:51:43;;;;;;;;;;;21.50;42.80;;;;;;3052935;19;4521;-30
2023/03/25 05:52:48;;;;;;;;;;;21.60;42.80;;;;;;3053707;19;4543;-30
2023/03/25 05:53:48;;;;;;;;;;;21.60;42.70;;;;;;3052848;19;4481;-30
2023/03/25 05:54:50;;;;;;;;;;;21.70;42.60;;;;;;3054677;19;4523;-31
2023/03/25 05:55:51;;;;;;;;;;;21.70;42.40;;;;;;3053907;19;4498;-30
2023/03/25 05:56:52;;;;;;;;;;;21.70;42.30;;;;;;3054224;19;4507;-31
2023/03/25 05:57:52;;;;;;;;;;;21.70;42.30;;;;;;3053957;19;4501;-30
2023/03/25 05:58:53;;;;;;;;;;;21.70;42.40;;;;;;3054729;19;4741;-29
2023/03/25 05:59:54;;;;;;;;;;;21.70;42.40;;;;;;3055083;19;4708;-33
2023/03/25 06:00:55;;;;;;;;;;;21.60;42.40;;;;;;3052684;19;4511;-33
2023/03/25 06:01:56;;;;;;;;;;;21.60;42.30;;;;;;3054569;19;4528;-31
2023/03/25 06:02:57;;;;;;;;;;;21.60;42.50;;;;;;3053003;19;4469;-33
2023/03/25 06:04:00;;;;;;;;;;;21.60;42.50;;;;;;3053258;19;4492;-31
2023/03/25 06:05:01;;;;;;;;;;;21.60;42.40;;;;;;3053401;19;4566;-32
2023/03/25 06:06:04;;;;;;;;;;;21.60;42.50;;;;;;3054535;19;4478;-30
2023/03/25 06:07:12;;;;;;;;;;;21.60;42.50;;;;;;3053986;19;6409;-30
2023/03/25 06:08:13;;;;;;;;;;;21.50;42.50;;;;;;3053794;19;5909;-30
2023/03/25 06:09:16;;;;;;;;;;;21.50;42.50;;;;;;3051178;19;4567;-32
2023/03/25 06:10:17;;;;;;;;;;;21.50;42.50;;;;;;3053781;19;4549;-33
2023/03/25 06:11:18;;;;;;;;;;;21.50;42.50;;;;;;3054088;19;4540;-30
2023/03/25 06:12:20;;;;;;;;;;;21.50;42.60;;;;;;3052677;19;4542;-30
2023/03/25 06:13:20;;;;;;;;;;;21.50;42.70;;;;;;3051689;19;4389;-31
2023/03/25 06:14:24;;;;;;;;;;;21.50;42.60;;;;;;3053891;19;4565;-30
2023/03/25 06:15:27;;;;;;;;;;;21.50;42.70;;;;;;3054120;19;5790;-30
2023/03/25 06:16:29;;;;;;;;;;;21.40;42.50;;;;;;3051848;19;4642;-32
2023/03/25 06:17:29;;;;;;;;;;;21.40;42.60;;;;;;3054444;19;4541;-31
2023/03/25 06:18:31;;;;;;;;;;;21.40;42.70;;;;;;3053362;19;4524;-32
2023/03/25 06:19:32;;;;;;;;;;;21.40;42.60;;;;;;3054517;19;4391;-31
2023/03/25 06:20:32;;;;;;;;;;;21.40;42.70;;;;;;3052449;19;4462;-30
2023/03/25 06:21:33;;;;;;;;;;;21.40;42.70;;;;;;3054259;19;4478;-31
2023/03/25 06:22:36;;;;;;;;;;;21.40;42.80;;;;;;3054025;19;4535;-30
2023/03/25 06:23:38;;;;;;;;;;;21.40;42.80;;;;;;3053960;19;4610;-32
2023/03/25 06:24:39;;;;;;;;;;;21.40;42.80;;;;;;3053929;19;4500;-32
2023/03/25 06:25:40;;;;;;;;;;;21.40;43.50;;;;;;3053300;19;4470;-31
2023/03/25 06:26:40;;;;;;;;;;;21.40;42.80;;;;;;3051603;19;4554;-29
2023/03/25 06:27:41;;;;;;;;;;;21.40;42.90;;;;;;3053236;19;4541;-31
2023/03/25 06:28:42;;;;;;;;;;;21.30;43.00;;;;;;3054389;19;4523;-32
2023/03/25 06:29:43;;;;;;;;;;;21.30;42.90;;;;;;3053175;19;4557;-31
2023/03/25 06:30:46;;;;;;;;;;;21.30;42.90;;;;;;3052387;19;4543;-33
2023/03/25 06:31:47;;;;;;;;;;;21.30;42.80;;;;;;3051171;19;5923;-30
2023/03/25 06:32:49;;;;;;;;;;;21.30;43.00;;;;;;3052367;19;5941;-31
2023/03/25 06:33:50;;;;;;;;;;;21.40;43.00;;;;;;3053182;19;4588;-31
2023/03/25 06:34:50;;;;;;;;;;;21.40;43.00;;;;;;3053165;19;4519;-30
2023/03/25 06:35:52;;;;;;;;;;;21.50;42.90;;;;;;3053585;19;4491;-31
2023/03/25 06:36:53;;;;;;;;;;;21.50;42.70;;;;;;3052739;19;4370;-30
2023/03/25 06:37:54;;;;;;;;;;;21.50;42.50;;;;;;3053611;19;4483;-32
2023/03/25 06:38:57;;;;;;;;;;;21.50;42.50;;;;;;3054036;19;4524;-31
2023/03/25 06:39:58;;;;;;;;;;;21.50;42.30;;;;;;3054535;19;4484;-31
2023/03/25 06:40:59;;;;;;;;;;;21.60;42.50;;;;;;3051713;19;5903;-31
2023/03/25 06:41:59;;;;;;;;;;;21.60;42.40;;;;;;3053101;19;4427;-30
2023/03/25 06:43:00;;;;;;;;;;;21.60;42.40;;;;;;3050065;19;4533;-30
2023/03/25 06:44:01;;;;;;;;;;;21.60;42.40;;;;;;3051692;19;4354;-32
2023/03/25 06:45:03;;;;;;;;;;;21.60;42.40;;;;;;3054671;19;4469;-32
2023/03/25 06:46:04;;;;;;;;;;;21.60;42.50;;;;;;3050967;19;4608;-29
2023/03/25 06:47:05;;;;;;;;;;;21.60;42.40;;;;;;3054188;19;4482;-33
2023/03/25 06:48:06;;;;;;;;;;;21.60;42.40;;;;;;3054479;19;4439;-24
2023/03/25 06:49:07;;;;;;;;;;;21.50;42.30;;;;;;3052954;19;4504;-23
2023/03/25 06:50:07;;;;;;;;;;;21.50;42.30;;;;;;3052281;19;4524;-28
2023/03/25 06:51:08;;;;;;;;;;;21.50;42.30;;;;;;3053668;19;4721;-23
2023/03/25 06:52:10;;;;;;;;;;;21.50;42.30;;;;;;3052345;19;4733;-23
2023/03/25 06:53:11;;;;;;;;;;;21.50;42.30;;;;;;3053129;19;4466;-22
2023/03/25 06:54:11;;;;;;;;;;;21.50;42.30;;;;;;3053639;19;5744;-23
2023/03/25 06:55:12;;;;;;;;;;;21.50;42.30;;;;;;3052872;19;4520;-23
2023/03/25 06:56:13;;;;;;;;;;;21.50;42.40;;;;;;3052381;19;4550;-23
2023/03/25 06:57:14;;;;;;;;;;;21.50;42.30;;;;;;3050700;19;4474;-22
2023/03/25 06:58:14;;;;;;;;;;;21.50;42.30;;;;;;3051026;19;4580;-22
2023/03/25 06:59:15;;;;;;;;;;;21.50;42.20;;;;;;3054094;19;4469;-23
2023/03/25 07:00:22;;;;;;;;;;;21.50;42.40;;;;;;3051942;19;4642;-23
2023/03/25 07:01:22;;;;;;;;;;;21.50;42.50;;;;;;3052958;19;4579;-22
2023/03/25 07:02:23;;;;;;;;;;;21.60;42.40;;;;;;3053207;19;4511;-23
2023/03/25 07:03:24;;;;;;;;;;;21.70;42.20;;;;;;3051741;19;5107;-23
2023/03/25 07:04:25;;;;;;;;;;;21.70;42.00;;;;;;3051146;19;4556;-23
2023/03/25 07:05:25;;;;;;;;;;;21.80;41.90;;;;;;3051671;19;4482;-23
2023/03/25 07:06:26;;;;;;;;;;;21.80;41.80;;;;;;3053896;19;4482;-23
2023/03/25 07:07:26;;;;;;;;;;;21.80;41.70;;;;;;3052836;19;4472;-22
2023/03/25 07:08:27;;;;;;;;;;;21.90;41.70;;;;;;3052896;19;4558;-23
2023/03/25 07:09:28;;;;;;;;;;;22.00;41.70;;;;;;3048574;19;4534;-22
2023/03/25 07:10:29;;;;;;;;;;;21.90;41.60;;;;;;3052752;19;4669;-23
2023/03/25 07:11:30;;;;;;;;;;;21.80;42.30;;;;;;3050113;19;4892;-23
2023/03/25 07:12:32;;;;;;;;;;;21.80;41.60;;;;;;3051514;19;4952;-23
2023/03/25 07:13:33;;;;;;;;;;;21.80;41.60;;;;;;3052466;19;5989;-23
2023/03/25 07:14:34;;;;;;;;;;;21.80;41.70;;;;;;3053225;19;4542;-22
2023/03/25 07:15:35;;;;;;;;;;;21.80;41.70;;;;;;3052184;19;4677;-23
2023/03/25 07:16:35;;;;;;;;;;;21.80;41.70;;;;;;3053436;19;4386;-23
2023/03/25 07:17:36;;;;;;;;;;;21.80;41.70;;;;;;3053087;19;4474;-23
2023/03/25 07:18:37;;;;;;;;;;;21.80;41.70;;;;;;3052016;19;4531;-22
2023/03/25 07:19:37;;;;;;;;;;;21.80;41.70;;;;;;3053085;19;4498;-23
2023/03/25 07:20:38;;;;;;;;;;;21.80;41.60;;;;;;3049409;19;4490;-23
2023/03/25 07:21:39;;;;;;;;;;;21.80;41.70;;;;;;3052223;19;4835;-22
2023/03/25 07:22:40;;;;;;;;;;;21.80;42.50;;;;;;3053687;19;4527;-23
2023/03/25 07:23:40;;;;;;;;;;;21.80;41.80;;;;;;3052764;19;4497;-23
2023/03/25 07:24:41;;;;;;;;;;;21.80;41.80;;;;;;3051708;19;4521;-23
2023/03/25 07:25:42;;;;;;;;;;;21.80;41.70;;;;;;3053485;19;4561;-23
2023/03/25 07:26:42;;;;;;;;;;;21.80;41.80;;;;;;3051856;19;4513;-32
2023/03/25 07:27:43;;;;;;;;;;;21.80;41.60;;;;;;3053157;19;4547;-23
2023/03/25 07:28:46;;;;;;;;;;;21.70;41.60;;;;;;3053501;19;4515;-23
2023/03/25 07:29:47;;;;;;;;;;;21.70;41.70;;;;;;3050519;19;4387;-23
2023/03/25 07:30:47;;;;;;;;;;;21.80;41.80;;;;;;3054217;19;4593;-23
2023/03/25 07:31:48;;;;;;;;;;;21.80;42.10;;;;;;3052031;19;6562;-22
2023/03/25 07:32:49;;;;;;;;;;;21.80;42.70;;;;;;3052602;19;4717;-23
2023/03/25 07:33:50;;;;;;;;;;;21.70;43.10;;;;;;3054728;19;4508;-24
2023/03/25 07:34:51;;;;;;;;;;;21.70;42.90;;;;;;3053402;19;4508;-23
2023/03/25 07:35:51;;;;;;;;;;;21.70;42.80;;;;;;3054638;19;4470;-23
2023/03/25 07:36:52;;;;;;;;;;;21.70;42.90;;;;;;3054246;19;4495;-25
2023/03/25 07:37:53;;;;;;;;;;;21.70;42.80;;;;;;3052515;19;4452;-23
2023/03/25 07:38:53;;;;;;;;;;;21.60;43.00;;;;;;3052903;19;4485;-23
2023/03/25 07:39:54;;;;;;;;;;;21.60;42.90;;;;;;3053047;19;4362;-23
2023/03/25 07:40:55;;;;;;;;;;;21.60;42.90;;;;;;3052113;19;4365;-22
2023/03/25 07:41:55;;;;;;;;;;;21.60;42.80;;;;;;3053767;19;5037;-23
2023/03/25 07:42:56;;;;;;;;;;;21.60;42.90;;;;;;3051394;19;4660;-23
2023/03/25 07:43:57;;;;;;;;;;;21.60;42.70;;;;;;3052547;19;4496;-22
2023/03/25 07:44:57;;;;;;;;;;;21.60;42.90;;;;;;3053054;19;5932;-22
2023/03/25 07:45:58;;;;;;;;;;;21.60;42.70;;;;;;3052521;19;4535;-23
2023/03/25 07:46:59;;;;;;;;;;;21.60;43.10;;;;;;3053405;19;4504;-22
2023/03/25 07:48:00;;;;;;;;;;;21.60;42.90;;;;;;3052504;19;4762;-23
2023/03/25 07:49:01;;;;;;;;;;;21.50;42.90;;;;;;3051137;19;4420;-23
2023/03/25 07:50:02;;;;;;;;;;;21.60;42.90;;;;;;3053272;19;4607;-23
2023/03/25 07:51:03;;;;;;;;;;;21.50;42.90;;;;;;3052998;19;4380;-24
2023/03/25 07:52:03;;;;;;;;;;;21.50;42.90;;;;;;3053645;19;4478;-23
2023/03/25 07:53:04;;;;;;;;;;;21.50;42.90;;;;;;3052797;19;4414;-23
2023/03/25 07:54:05;;;;;;;;;;;21.50;42.90;;;;;;3052742;19;4364;-23
2023/03/25 07:55:06;;;;;;;;;;;21.50;42.90;;;;;;3051873;19;6127;-23
2023/03/25 07:56:07;;;;;;;;;;;21.50;43.00;;;;;;3050054;19;4452;-23
2023/03/25 07:57:08;;;;;;;;;;;21.50;43.10;;;;;;3052810;19;4944;-23
2023/03/25 07:58:08;;;;;;;;;;;21.50;42.80;;;;;;3051953;19;4509;-31
2023/03/25 07:59:09;;;;;;;;;;;21.50;42.70;;;;;;3052682;19;911;-31
2023/03/25 08:00:10;;;;;;;;;;;21.50;42.90;;;;;;3052040;19;4517;-32
2023/03/25 08:01:11;;;;;;;;;;;21.60;42.90;;;;;;3050526;19;4508;-30
2023/03/25 08:02:12;;;;;;;;;;;21.60;42.60;;;;;;3051920;19;5851;-30
2023/03/25 08:03:13;;;;;;;;;;;21.60;42.30;;;;;;3052720;19;4541;-32
2023/03/25 08:04:13;;;;;;;;;;;21.60;42.20;;;;;;3050105;19;4389;-30
2023/03/25 08:05:20;;;;;;;;;;;21.70;42.30;;;;;;3049380;19;4502;-31
2023/03/25 08:06:20;;;;;;;;;;;21.60;42.20;;;;;;3051953;19;4377;-31
2023/03/25 08:07:21;;;;;;;;;;;21.70;42.10;;;;;;3051702;19;4559;-30
2023/03/25 08:08:22;;;;;;;;;;;21.70;42.10;;;;;;3052040;19;4535;-30
2023/03/25 08:09:22;;;;;;;;;;;21.70;42.10;;;;;;3052576;19;4543;-30
2023/03/25 08:10:23;;;;;;;;;;;21.70;42.00;;;;;;3051780;19;4521;-33
2023/03/25 08:11:24;;;;;;;;;;;21.70;42.20;;;;;;3052839;19;5839;-30
2023/03/25 08:12:24;;;;;;;;;;;21.70;41.90;;;;;;3051310;19;4497;-30
2023/03/25 08:13:25;;;;;;;;;;;21.70;42.20;;;;;;3051682;19;4564;-30
2023/03/25 08:14:26;;;;;;;;;;;21.70;42.10;;;;;;3052139;19;4489;-29
2023/03/25 08:15:27;;;;;;;;;;;21.70;42.00;;;;;;3050822;19;4568;-30
2023/03/25 08:16:27;;;;;;;;;;;21.60;42.10;;;;;;3053389;19;4568;-32
2023/03/25 08:17:28;;;;;;;;;;;21.60;42.00;;;;;;3050303;19;4562;-30
2023/03/25 08:18:29;;;;;;;;;;;21.60;42.10;;;;;;3052346;19;4732;-33
2023/03/25 08:19:30;;;;;;;;;;;21.60;42.00;;;;;;3051922;19;4530;-32
2023/03/25 08:20:30;;;;;;;;;;;21.60;42.00;;;;;;3051586;19;4430;-34
2023/03/25 08:21:31;;;;;;;;;;;21.60;42.10;;;;;;3053282;19;4541;-31
2023/03/25 08:22:32;;;;;;;;;;;21.60;42.10;;;;;;3052354;19;4357;-32
2023/03/25 08:23:35;;;;;;;;;;;21.60;42.10;;;;;;3048971;19;4561;-30
2023/03/25 08:24:36;;;;;;;;;;;21.60;42.10;;;;;;3050022;19;4475;-34
2023/03/25 08:25:37;;;;;;;;;;;21.60;42.10;;;;;;3046931;19;4535;-30
2023/03/25 08:26:38;;;;;;;;;;;21.50;42.10;;;;;;3052346;19;4593;-29
2023/03/25 08:27:39;;;;;;;;;;;21.50;42.10;;;;;;3050604;19;4386;-31
2023/03/25 08:28:39;;;;;;;;;;;21.50;41.90;;;;;;3049635;19;4549;-30
2023/03/25 08:29:40;;;;;;;;;;;21.50;41.90;;;;;;3048508;19;4348;-33
2023/03/25 08:30:41;;;;;;;;;;;21.50;42.10;;;;;;3051187;19;4379;-30
2023/03/25 08:31:45;;;;;;;;;;;21.50;42.00;;;;;;3052979;19;4508;-31
2023/03/25 08:32:53;;;;;;;;;;;21.50;42.00;;;;;;3047902;19;4475;-31
2023/03/25 08:33:53;;;;;;;;;;;21.50;42.10;;;;;;3051712;19;4445;-31
2023/03/25 08:34:54;;;;;;;;;;;21.50;42.00;;;;;;3051880;19;5999;-33
2023/03/25 08:35:55;;;;;;;;;;;21.50;42.00;;;;;;3051897;19;4490;-32
2023/03/25 08:36:56;;;;;;;;;;;21.40;41.90;;;;;;3051511;19;4530;-30
2023/03/25 08:38:00;;;;;;;;;;;21.40;42.00;;;;;;3050962;19;4464;-33
2023/03/25 08:39:06;;;;;;;;;;;21.40;42.10;;;;;;3050726;19;4439;-33
2023/03/25 08:40:10;;;;;;;;;;;21.40;42.10;;;;;;3050693;19;5983;-30
2023/03/25 08:41:11;;;;;;;;;;;21.40;42.10;;;;;;3049541;19;4430;-31
2023/03/25 08:42:12;;;;;;;;;;;21.40;42.30;;;;;;3053233;19;1153;-30
2023/03/25 08:43:12;;;;;;;;;;;21.40;42.20;;;;;;3050658;19;4515;-31
2023/03/25 08:44:13;;;;;;;;;;;21.40;42.30;;;;;;3052154;19;4947;-33
2023/03/25 08:45:14;;;;;;;;;;;21.40;42.30;;;;;;3051380;19;4469;-32
2023/03/25 08:46:15;;;;;;;;;;;21.40;42.20;;;;;;3049983;19;4397;-30
2023/03/25 08:47:15;;;;;;;;;;;21.40;42.30;;;;;;3050623;19;4532;-31
2023/03/25 08:48:16;;;;;;;;;;;21.40;42.20;;;;;;3051526;19;4526;-33
2023/03/25 08:49:17;;;;;;;;;;;21.40;42.20;;;;;;3051912;19;4520;-30
2023/03/25 08:50:17;;;;;;;;;;;21.40;42.20;;;;;;3048204;19;4715;-30
2023/03/25 08:51:18;;;;;;;;;;;21.30;42.20;;;;;;3049807;19;4562;-31
2023/03/25 08:52:19;;;;;;;;;;;21.40;42.30;;;;;;3049520;19;4478;-31